Time;durP1;ratioP1;P1;durP2;ratioP2;P2;SDS_P1;SDS_P2;PMS_P1;PMS_P2;Temp;Humidity;BMP_temperature;BMP_pressure;BME280_temperature;BME280_humidity;BME280_pressure;Samples;Min_cycle;Max_cycle;Signal;HPM_P1;HPM_P2
2022/11/18 00:02:10;;;;;;;0.70;0.38;;;10.90;86.60;;;;;;5032086;28;20501;-62
2022/11/18 00:04:36;;;;;;;1.42;0.70;;;10.90;86.60;;;;;;5034599;28;20520;-61
2022/11/18 00:07:01;;;;;;;1.15;0.60;;;10.90;86.40;;;;;;5033227;28;20154;-61
2022/11/18 00:09:27;;;;;;;0.70;0.50;;;10.90;86.40;;;;;;5036545;28;20033;-61
2022/11/18 00:14:37;;;;;;;1.05;0.50;;;11.00;86.40;;;;;;5036080;28;20418;-62
2022/11/18 00:17:05;;;;;;;1.20;0.40;;;10.90;86.20;;;;;;5035785;28;20120;-62
2022/11/18 00:19:39;;;;;;;0.75;0.30;;;10.90;86.20;;;;;;5037258;28;20045;-62
2022/11/18 00:22:07;;;;;;;0.30;0.30;;;10.90;86.40;;;;;;5033878;28;20049;-62
2022/11/18 00:24:33;;;;;;;0.52;0.20;;;10.90;86.10;;;;;;5032718;28;20029;-62
2022/11/18 00:26:59;;;;;;;0.30;0.20;;;10.90;86.10;;;;;;5033403;28;20045;-62
2022/11/18 00:29:27;;;;;;;0.30;0.10;;;10.90;86.20;;;;;;5034674;28;20103;-61
2022/11/18 00:31:56;;;;;;;0.35;0.30;;;10.90;86.30;;;;;;5035815;28;20038;-61
2022/11/18 00:34:22;;;;;;;0.60;0.30;;;10.80;86.30;;;;;;5034637;28;20030;-62
2022/11/18 00:36:47;;;;;;;0.55;0.40;;;10.80;86.50;;;;;;5033619;28;20076;-62
2022/11/18 00:39:15;;;;;;;0.50;0.50;;;10.80;86.60;;;;;;5033555;28;20348;-62
2022/11/18 00:44:25;;;;;;;0.80;0.45;;;10.80;86.70;;;;;;5032775;28;20199;-63
2022/11/18 00:46:51;;;;;;;1.20;0.30;;;10.70;86.80;;;;;;5031829;28;20179;-62
2022/11/18 00:49:17;;;;;;;0.32;0.30;;;10.70;86.80;;;;;;5032974;28;20045;-63
2022/11/18 00:51:42;;;;;;;0.60;0.43;;;10.70;86.90;;;;;;5032179;28;20164;-63
2022/11/18 00:54:08;;;;;;;0.70;0.45;;;10.70;87.10;;;;;;5030518;28;20493;-63
2022/11/18 00:56:33;;;;;;;0.57;0.40;;;10.70;87.10;;;;;;5033187;28;20393;-62
2022/11/18 00:58:59;;;;;;;2.28;0.50;;;10.70;87.20;;;;;;5034018;28;20037;-63
2022/11/18 01:01:25;;;;;;;0.80;0.50;;;10.70;87.30;;;;;;5034170;28;20452;-62
2022/11/18 01:03:51;;;;;;;0.35;0.30;;;10.70;87.40;;;;;;5030224;28;20033;-62
2022/11/18 01:06:16;;;;;;;1.55;0.35;;;10.70;87.40;;;;;;5031325;28;20056;-63
2022/11/18 01:08:42;;;;;;;0.77;0.40;;;10.70;87.40;;;;;;5032189;28;20293;-62
2022/11/18 01:13:52;;;;;;;0.57;0.40;;;10.70;87.40;;;;;;5031999;28;20128;-63
2022/11/18 01:16:19;;;;;;;0.68;0.40;;;10.70;87.40;;;;;;5032351;28;20107;-63
2022/11/18 01:18:45;;;;;;;1.63;0.50;;;10.70;87.50;;;;;;5033087;28;22823;-63
2022/11/18 01:21:11;;;;;;;0.90;0.50;;;10.70;87.50;;;;;;5031529;28;20127;-63
2022/11/18 01:23:37;;;;;;;0.90;0.52;;;10.70;87.50;;;;;;5032995;28;20029;-63
2022/11/18 01:26:05;;;;;;;0.40;0.40;;;10.70;87.40;;;;;;5034935;28;20041;-63
2022/11/18 01:28:31;;;;;;;0.68;0.40;;;10.70;87.40;;;;;;5034935;28;20040;-63
2022/11/18 01:31:23;;;;;;;1.73;0.40;;;10.70;87.30;;;;;;5035999;28;20041;-63
2022/11/18 01:33:48;;;;;;;0.50;0.40;;;10.70;87.50;;;;;;5033152;28;20042;-62
2022/11/18 01:36:19;;;;;;;0.50;0.50;;;10.70;87.30;;;;;;5029371;28;20244;-62
2022/11/18 01:38:45;;;;;;;0.70;0.40;;;10.70;87.60;;;;;;5031394;28;20033;-63
2022/11/18 01:41:11;;;;;;;0.52;0.50;;;10.60;87.60;;;;;;5030194;28;20044;-61
2022/11/18 01:43:55;;;;;;;0.55;0.55;;;10.60;87.60;;;;;;5031356;28;20464;-63
2022/11/18 01:46:22;;;;;;;0.40;0.40;;;10.60;88.30;;;;;;5033770;28;20104;-63
2022/11/18 01:48:54;;;;;;;0.40;0.40;;;10.60;87.80;;;;;;5033070;28;20211;-62
2022/11/18 01:51:25;;;;;;;0.95;0.40;;;10.50;88.00;;;;;;5033409;28;20315;-62
2022/11/18 01:53:59;;;;;;;1.02;0.50;;;10.50;88.10;;;;;;5032716;28;20046;-63
2022/11/18 01:56:31;;;;;;;0.40;0.40;;;10.50;88.10;;;;;;5032832;28;20092;-63
2022/11/18 01:59:02;;;;;;;0.80;0.50;;;10.50;88.30;;;;;;5032427;28;20514;-62
2022/11/18 02:01:27;;;;;;;0.43;0.43;;;10.60;88.40;;;;;;5034853;28;20048;-63
2022/11/18 02:03:53;;;;;;;0.45;0.40;;;10.50;88.30;;;;;;5037546;28;20021;-63
2022/11/18 02:06:19;;;;;;;0.60;0.47;;;10.50;88.30;;;;;;5038758;28;20034;-63
2022/11/18 02:08:45;;;;;;;0.40;0.40;;;10.40;88.30;;;;;;5038346;28;20041;-61
2022/11/18 02:13:59;;;;;;;1.35;0.40;;;10.40;88.30;;;;;;5035071;28;20106;-62
2022/11/18 02:16:40;;;;;;;1.05;0.60;;;10.40;88.30;;;;;;5037673;28;20072;-61
2022/11/18 02:19:34;;;;;;;0.50;0.40;;;10.40;88.70;;;;;;5036603;28;20030;-63
2022/11/18 02:22:23;;;;;;;0.60;0.40;;;10.40;88.70;;;;;;5036400;28;20529;-63
2022/11/18 02:25:18;;;;;;;0.57;0.40;;;10.50;88.70;;;;;;5037676;28;20037;-62
2022/11/18 02:28:11;;;;;;;0.70;0.40;;;10.40;88.90;;;;;;5039001;28;20029;-63
2022/11/18 02:31:07;;;;;;;0.22;0.22;;;10.40;88.90;;;;;;5037238;28;20419;-62
2022/11/18 02:33:54;;;;;;;0.70;0.45;;;10.40;88.90;;;;;;5036053;28;20029;-62
2022/11/18 02:36:25;;;;;;;0.55;0.40;;;10.30;89.00;;;;;;5037838;28;20523;-62
2022/11/18 02:38:56;;;;;;;0.73;0.40;;;10.30;88.70;;;;;;5036259;28;20508;-62
2022/11/18 02:41:28;;;;;;;0.70;0.50;;;10.30;88.80;;;;;;5037109;28;20041;-62
2022/11/18 02:44:04;;;;;;;2.15;0.45;;;10.30;89.00;;;;;;5038394;28;20061;-61
2022/11/18 02:46:33;;;;;;;0.50;0.43;;;10.30;88.80;;;;;;5034693;28;20121;-63
2022/11/18 02:49:03;;;;;;;0.40;0.40;;;10.30;89.00;;;;;;5038744;28;20064;-62
2022/11/18 02:51:30;;;;;;;0.50;0.50;;;10.30;88.80;;;;;;5034719;28;20452;-62
2022/11/18 02:54:02;;;;;;;1.00;0.50;;;10.30;89.00;;;;;;5037473;28;20037;-62
2022/11/18 02:56:28;;;;;;;0.40;0.40;;;10.30;89.10;;;;;;5037770;28;20501;-63
2022/11/18 02:58:54;;;;;;;0.30;0.30;;;10.30;89.00;;;;;;5036660;28;20045;-62
2022/11/18 03:01:24;;;;;;;1.17;0.40;;;10.30;89.10;;;;;;5036395;28;20030;-62
2022/11/18 03:03:49;;;;;;;0.20;0.20;;;10.20;89.20;;;;;;5035943;28;20060;-62
2022/11/18 03:06:24;;;;;;;0.85;0.30;;;10.20;89.30;;;;;;5038789;28;20492;-62
2022/11/18 03:08:54;;;;;;;0.20;0.20;;;10.20;89.50;;;;;;5037862;28;20033;-62
2022/11/18 03:11:22;;;;;;;0.82;0.20;;;10.30;89.40;;;;;;5030706;28;20084;-62
2022/11/18 03:14:04;;;;;;;0.30;0.20;;;10.30;89.30;;;;;;5034175;28;20397;-62
2022/11/18 03:16:54;;;;;;;0.28;0.17;;;10.30;89.80;;;;;;5037141;28;20050;-62
2022/11/18 03:19:41;;;;;;;0.20;0.20;;;10.30;89.50;;;;;;5034275;28;20497;-62
2022/11/18 03:22:13;;;;;;;0.10;0.10;;;10.30;89.50;;;;;;5036652;28;20037;-63
2022/11/18 03:24:45;;;;;;;0.10;0.10;;;10.30;89.70;;;;;;5039066;28;20025;-60
2022/11/18 03:27:29;;;;;;;0.17;0.10;;;10.30;89.70;;;;;;5036846;28;20034;-62
2022/11/18 03:30:03;;;;;;;0.10;0.10;;;10.30;89.90;;;;;;5039487;28;20397;-62
2022/11/18 03:32:31;;;;;;;0.40;0.10;;;10.30;89.50;;;;;;5037121;28;20074;-62
2022/11/18 03:35:14;;;;;;;0.10;0.10;;;10.40;89.50;;;;;;5037445;28;20041;-62
2022/11/18 03:37:41;;;;;;;1.10;0.20;;;10.40;89.80;;;;;;5038170;28;20166;-62
2022/11/18 03:40:22;;;;;;;0.10;0.10;;;10.40;89.50;;;;;;5034855;28;20037;-61
2022/11/18 03:42:52;;;;;;;0.20;0.10;;;10.40;89.60;;;;;;5034152;28;20033;-61
2022/11/18 03:45:35;;;;;;;0.55;0.10;;;10.40;89.30;;;;;;5034714;28;20409;-60
2022/11/18 03:48:16;;;;;;;0.57;0.20;;;10.40;89.30;;;;;;5036924;28;20068;-61
2022/11/18 03:50:54;;;;;;;0.47;0.10;;;10.40;89.20;;;;;;5038031;28;20060;-62
2022/11/18 03:53:21;;;;;;;0.30;0.05;;;10.40;89.00;;;;;;5036550;28;20330;-61
2022/11/18 03:55:51;;;;;;;0.20;0.20;;;10.40;88.90;;;;;;5035959;28;20048;-62
2022/11/18 03:58:31;;;;;;;0.35;0.20;;;10.40;89.00;;;;;;5036707;28;20037;-61
2022/11/18 04:01:10;;;;;;;0.63;0.13;;;10.50;89.00;;;;;;5036346;28;20029;-62
2022/11/18 04:03:35;;;;;;;0.50;0.20;;;10.50;89.00;;;;;;5035937;28;20045;-61
2022/11/18 04:06:42;;;;;;;0.60;0.20;;;10.50;88.90;;;;;;5035283;28;20052;-61
2022/11/18 04:09:21;;;;;;;1.55;0.40;;;10.50;89.00;;;;;;5034642;28;20083;-63
2022/11/18 04:12:03;;;;;;;0.95;0.20;;;10.50;89.00;;;;;;5031492;28;20048;-63
2022/11/18 04:14:34;;;;;;;0.93;0.20;;;10.50;88.80;;;;;;5034203;28;20172;-62
2022/11/18 04:17:08;;;;;;;1.52;0.25;;;10.50;89.00;;;;;;5037823;28;20044;-64
2022/11/18 04:19:34;;;;;;;2.08;0.20;;;10.50;89.00;;;;;;5033243;28;20028;-64
2022/11/18 04:22:00;;;;;;;0.32;0.17;;;10.50;88.40;;;;;;5035586;28;20496;-63
2022/11/18 04:24:25;;;;;;;0.10;0.00;;;10.40;87.80;;;;;;5035330;28;20037;-63
2022/11/18 04:26:51;;;;;;;0.15;0.10;;;10.40;87.60;;;;;;5035717;28;20398;-63
2022/11/18 04:29:17;;;;;;;1.75;0.03;;;10.30;87.60;;;;;;5034350;28;20036;-63
2022/11/18 04:31:42;;;;;;;2.05;0.10;;;10.20;87.60;;;;;;5033851;28;20393;-63
2022/11/18 04:34:08;;;;;;;0.60;0.20;;;10.20;87.90;;;;;;5032490;28;20065;-64
2022/11/18 04:36:33;;;;;;;0.10;0.10;;;10.20;88.10;;;;;;5032686;28;20037;-63
2022/11/18 04:38:59;;;;;;;0.13;0.10;;;10.20;88.30;;;;;;5033346;28;20052;-63
2022/11/18 04:41:54;;;;;;;0.13;0.13;;;10.10;88.50;;;;;;5033490;28;20963;-62
2022/11/18 04:44:13;;;;;;;0.40;0.10;;;10.10;88.70;;;;;;5032536;28;20039;-64
2022/11/18 04:46:43;;;;;;;1.27;0.10;;;10.00;88.60;;;;;;5032784;28;20029;-63
2022/11/18 04:49:10;;;;;;;0.40;0.20;;;10.00;88.80;;;;;;5033656;28;20107;-63
2022/11/18 04:51:36;;;;;;;0.40;0.25;;;10.00;88.90;;;;;;5027748;28;20090;-63
2022/11/18 04:54:02;;;;;;;0.40;0.40;;;10.00;89.00;;;;;;5028431;28;20048;-63
2022/11/18 04:56:28;;;;;;;0.22;0.10;;;10.00;89.00;;;;;;5030534;28;20037;-63
2022/11/18 04:58:53;;;;;;;1.52;0.40;;;10.00;89.00;;;;;;5031505;28;20040;-63
2022/11/18 05:01:19;;;;;;;1.08;0.98;;;10.00;89.10;;;;;;5031747;28;20032;-63
2022/11/18 05:03:44;;;;;;;0.90;0.70;;;9.90;88.90;;;;;;5032696;28;20040;-62
2022/11/18 05:06:10;;;;;;;4.28;1.85;;;10.00;89.00;;;;;;5031682;28;20123;-63
2022/11/18 05:08:35;;;;;;;2.58;1.23;;;9.90;89.70;;;;;;5032138;28;20049;-63
2022/11/18 05:13:51;;;;;;;16.95;12.93;;;9.90;88.90;;;;;;5032926;28;20218;-63
2022/11/18 05:16:16;;;;;;;13.13;11.68;;;9.90;88.80;;;;;;5031864;28;20041;-63
2022/11/18 05:18:42;;;;;;;9.30;8.27;;;9.90;88.80;;;;;;5034781;28;20041;-63
2022/11/18 05:21:08;;;;;;;5.80;5.30;;;9.90;88.80;;;;;;5035084;28;20037;-62
2022/11/18 05:23:33;;;;;;;4.60;3.60;;;9.90;88.80;;;;;;5035049;28;20215;-62
2022/11/18 05:26:06;;;;;;;1.75;1.65;;;10.00;88.70;;;;;;5033515;28;20037;-62
2022/11/18 05:28:32;;;;;;;0.50;0.50;;;10.00;88.60;;;;;;5034284;28;20037;-63
2022/11/18 05:30:58;;;;;;;1.25;1.10;;;10.00;88.50;;;;;;5037642;28;20029;-63
2022/11/18 05:33:23;;;;;;;0.50;0.40;;;10.00;88.50;;;;;;5037374;28;20568;-62
2022/11/18 05:35:49;;;;;;;1.40;1.13;;;10.00;88.40;;;;;;5039600;28;20154;-62
2022/11/18 05:38:15;;;;;;;1.33;0.30;;;10.00;88.30;;;;;;5041099;28;20136;-61
2022/11/18 05:40:43;;;;;;;0.90;0.90;;;10.00;88.30;;;;;;5039258;28;20072;-62
2022/11/18 05:43:09;;;;;;;0.77;0.40;;;10.00;88.30;;;;;;5039525;28;20059;-62
2022/11/18 05:45:35;;;;;;;3.42;0.60;;;10.00;88.20;;;;;;5040362;28;20034;-62
2022/11/18 05:48:03;;;;;;;1.52;0.80;;;10.00;88.20;;;;;;5040035;28;20037;-62
2022/11/18 05:50:29;;;;;;;1.38;0.95;;;9.90;88.20;;;;;;5038910;28;20051;-62
2022/11/18 05:52:54;;;;;;;3.42;0.80;;;10.00;88.40;;;;;;5038895;28;20067;-62
2022/11/18 05:55:24;;;;;;;1.33;0.80;;;9.90;88.50;;;;;;5039170;28;20041;-62
2022/11/18 05:57:50;;;;;;;1.25;0.50;;;9.90;88.60;;;;;;5039038;28;20041;-62
2022/11/18 06:00:16;;;;;;;0.95;0.40;;;9.90;88.60;;;;;;5040181;28;20037;-62
2022/11/18 06:02:45;;;;;;;0.90;0.50;;;10.00;88.60;;;;;;5039281;28;20111;-62
2022/11/18 06:05:12;;;;;;;1.60;0.82;;;9.90;88.60;;;;;;5040919;28;20037;-62
2022/11/18 06:07:41;;;;;;;0.73;0.60;;;9.90;88.80;;;;;;5041327;28;20052;-62
2022/11/18 06:10:10;;;;;;;1.15;0.50;;;9.90;89.10;;;;;;5041742;28;20498;-61
2022/11/18 06:12:41;;;;;;;0.90;0.77;;;9.90;89.20;;;;;;5042687;28;20492;-62
2022/11/18 06:15:20;;;;;;;1.08;0.90;;;9.90;89.30;;;;;;5041099;28;20037;-63
2022/11/18 06:18:17;;;;;;;2.15;0.90;;;9.90;89.50;;;;;;5040287;28;20037;-63
2022/11/18 06:20:43;;;;;;;2.10;1.20;;;9.90;89.90;;;;;;5040697;28;20120;-63
2022/11/18 06:23:10;;;;;;;2.45;1.58;;;9.90;89.50;;;;;;5040079;28;20026;-63
2022/11/18 06:25:39;;;;;;;2.60;1.50;;;10.00;89.60;;;;;;5040734;28;20044;-63
2022/11/18 06:28:06;;;;;;;2.03;0.90;;;10.00;89.70;;;;;;5041376;28;20503;-63
2022/11/18 06:30:31;;;;;;;0.70;0.63;;;10.00;89.60;;;;;;5039822;28;20056;-63
2022/11/18 06:32:57;;;;;;;0.90;0.70;;;10.00;89.60;;;;;;5040073;28;20393;-61
2022/11/18 06:35:23;;;;;;;0.77;0.60;;;10.10;89.60;;;;;;5040159;28;20112;-62
2022/11/18 06:37:48;;;;;;;0.45;0.40;;;10.10;89.50;;;;;;5040936;28;20448;-61
2022/11/18 06:40:14;;;;;;;1.70;1.50;;;10.10;89.40;;;;;;5040735;28;20034;-61
2022/11/18 06:45:23;;;;;;;7.13;3.80;;;10.20;89.20;;;;;;5038471;28;20531;-62
2022/11/18 06:47:49;;;;;;;17.65;10.50;;;10.20;89.10;;;;;;5038872;28;20512;-62
2022/11/18 06:50:15;;;;;;;8.52;5.97;;;10.20;89.00;;;;;;5038508;28;20037;-62
2022/11/18 06:52:40;;;;;;;3.25;2.58;;;10.20;88.80;;;;;;5038220;28;20303;-61
2022/11/18 06:55:07;;;;;;;2.13;1.67;;;10.30;88.60;;;;;;5036305;28;20026;-62
2022/11/18 06:57:33;;;;;;;1.10;0.80;;;10.30;88.50;;;;;;5039583;28;20033;-62
2022/11/18 06:59:59;;;;;;;2.00;1.80;;;10.30;89.20;;;;;;5038711;28;20493;-62
2022/11/18 07:02:25;;;;;;;3.63;2.72;;;10.30;88.30;;;;;;5036931;28;20048;-62
2022/11/18 07:04:50;;;;;;;3.65;2.70;;;10.30;88.40;;;;;;5037847;28;20037;-62
2022/11/18 07:07:16;;;;;;;5.10;4.60;;;10.30;89.30;;;;;;5037796;28;20029;-63
2022/11/18 07:09:41;;;;;;;2.10;1.90;;;10.30;88.40;;;;;;5039475;28;20037;-62
2022/11/18 07:12:07;;;;;;;6.72;4.68;;;10.30;88.50;;;;;;5036378;28;20035;-62
2022/11/18 07:14:32;;;;;;;4.30;3.90;;;10.30;88.50;;;;;;5035957;28;20041;-62
2022/11/18 07:16:58;;;;;;;3.00;2.03;;;10.30;88.60;;;;;;5037595;28;20112;-62
2022/11/18 07:19:24;;;;;;;2.35;2.10;;;10.30;88.60;;;;;;5037592;28;20283;-63
2022/11/18 07:21:49;;;;;;;1.80;1.30;;;10.30;88.60;;;;;;5037841;28;20040;-62
2022/11/18 07:24:15;;;;;;;2.05;1.90;;;10.30;88.60;;;;;;5039433;28;20493;-62
2022/11/18 07:26:42;;;;;;;0.70;0.70;;;10.30;88.60;;;;;;5039343;28;20040;-62
2022/11/18 07:29:08;;;;;;;1.10;0.88;;;10.30;88.60;;;;;;5039820;28;20064;-62
2022/11/18 07:31:36;;;;;;;1.90;0.65;;;10.30;88.60;;;;;;5040128;28;20105;-62
2022/11/18 07:34:02;;;;;;;1.50;0.95;;;10.30;88.80;;;;;;5039594;28;20029;-61
2022/11/18 07:36:28;;;;;;;1.42;1.08;;;10.30;88.80;;;;;;5038656;28;20032;-62
2022/11/18 07:38:54;;;;;;;2.03;1.20;;;10.30;88.80;;;;;;5037912;28;20432;-61
2022/11/18 07:41:22;;;;;;;1.73;1.30;;;10.10;88.80;;;;;;5037018;28;20044;-61
2022/11/18 07:43:49;;;;;;;1.10;1.00;;;10.30;88.80;;;;;;5038158;28;20421;-62
2022/11/18 07:46:18;;;;;;;0.82;0.82;;;10.30;88.70;;;;;;5037181;28;20040;-60
2022/11/18 07:48:45;;;;;;;0.73;0.73;;;10.30;88.60;;;;;;5038008;28;20037;-62
2022/11/18 07:51:11;;;;;;;0.80;0.80;;;10.30;88.60;;;;;;5036547;28;20043;-60
2022/11/18 07:53:37;;;;;;;1.20;1.10;;;10.30;88.60;;;;;;5037251;28;20045;-61
2022/11/18 07:56:04;;;;;;;1.63;1.20;;;10.30;88.60;;;;;;5038515;28;20516;-62
2022/11/18 07:58:29;;;;;;;1.77;1.02;;;10.30;88.70;;;;;;5035644;28;20040;-60
2022/11/18 08:00:55;;;;;;;0.70;0.60;;;10.30;88.60;;;;;;5037708;28;20042;-61
2022/11/18 08:03:27;;;;;;;0.75;0.73;;;10.30;88.60;;;;;;5035934;28;20086;-62
2022/11/18 08:06:03;;;;;;;0.70;0.70;;;10.30;88.50;;;;;;5038307;28;20037;-62
2022/11/18 08:08:28;;;;;;;1.00;0.60;;;10.30;88.40;;;;;;5036786;28;20037;-62
2022/11/18 08:10:56;;;;;;;1.02;0.70;;;10.30;88.40;;;;;;5035048;28;20775;-61
2022/11/18 08:13:22;;;;;;;0.70;0.70;;;10.30;88.30;;;;;;5035974;28;20038;-62
2022/11/18 08:15:47;;;;;;;0.80;0.75;;;10.30;88.30;;;;;;5038499;28;20075;-60
2022/11/18 08:18:13;;;;;;;0.55;0.52;;;10.30;88.40;;;;;;5035383;28;20531;-61
2022/11/18 08:20:38;;;;;;;1.70;0.50;;;10.30;88.30;;;;;;5036326;28;20033;-62
2022/11/18 08:23:04;;;;;;;1.08;0.50;;;10.30;88.30;;;;;;5037084;28;20429;-60
2022/11/18 08:25:30;;;;;;;0.80;0.70;;;10.30;88.10;;;;;;5038054;28;20037;-60
2022/11/18 08:27:55;;;;;;;0.50;0.38;;;10.30;88.10;;;;;;5036208;28;20571;-62
2022/11/18 08:30:21;;;;;;;0.50;0.50;;;10.30;88.10;;;;;;5037913;28;20462;-61
2022/11/18 08:32:46;;;;;;;1.15;0.50;;;10.30;88.10;;;;;;5036303;28;20044;-62
2022/11/18 08:35:12;;;;;;;0.40;0.40;;;10.30;88.80;;;;;;5035496;28;20132;-61
2022/11/18 08:37:38;;;;;;;0.73;0.63;;;10.30;88.00;;;;;;5036375;28;20029;-62
2022/11/18 08:40:04;;;;;;;0.60;0.60;;;10.30;88.00;;;;;;5037629;28;20037;-60
2022/11/18 08:42:30;;;;;;;0.50;0.50;;;10.30;88.00;;;;;;5034767;28;20123;-61
2022/11/18 08:44:55;;;;;;;1.02;0.50;;;10.30;88.00;;;;;;5036060;28;20116;-62
2022/11/18 08:47:21;;;;;;;1.38;0.30;;;10.30;87.90;;;;;;5035649;28;20029;-62
2022/11/18 08:49:46;;;;;;;1.00;0.50;;;10.30;87.60;;;;;;5033698;28;20046;-61
2022/11/18 08:52:12;;;;;;;0.45;0.32;;;10.40;87.70;;;;;;5036111;28;20549;-61
2022/11/18 08:54:37;;;;;;;1.85;0.70;;;10.30;87.60;;;;;;5036685;28;20029;-62
2022/11/18 08:57:03;;;;;;;0.82;0.50;;;10.30;87.30;;;;;;5036309;28;20029;-60
2022/11/18 08:59:29;;;;;;;0.30;0.30;;;10.30;87.40;;;;;;5036898;28;20048;-62
2022/11/18 09:01:54;;;;;;;0.20;0.20;;;10.30;87.40;;;;;;5035950;28;20041;-61
2022/11/18 09:04:20;;;;;;;0.50;0.35;;;10.30;87.30;;;;;;5037013;28;20052;-62
2022/11/18 09:06:45;;;;;;;0.40;0.32;;;10.30;87.30;;;;;;5036673;28;20510;-62
2022/11/18 09:09:11;;;;;;;1.17;0.22;;;10.30;87.40;;;;;;5036426;28;20041;-62
2022/11/18 09:11:38;;;;;;;0.98;0.20;;;10.30;87.20;;;;;;5034395;28;20037;-61
2022/11/18 09:14:04;;;;;;;0.20;0.20;;;10.30;87.10;;;;;;5035754;28;20040;-62
2022/11/18 09:16:31;;;;;;;0.38;0.30;;;10.30;87.30;;;;;;5034352;28;20402;-61
2022/11/18 09:18:57;;;;;;;0.13;0.13;;;10.30;87.30;;;;;;5036907;28;20110;-61
2022/11/18 09:21:23;;;;;;;0.55;0.30;;;10.30;87.30;;;;;;5033524;28;20562;-60
2022/11/18 09:23:49;;;;;;;0.98;0.45;;;10.40;87.60;;;;;;5034257;28;20099;-61
2022/11/18 09:26:18;;;;;;;0.13;0.13;;;10.40;87.80;;;;;;5036384;28;20041;-61
2022/11/18 09:28:43;;;;;;;0.10;0.10;;;10.40;88.00;;;;;;5035609;28;20416;-61
2022/11/18 09:31:15;;;;;;;0.13;0.13;;;10.50;88.30;;;;;;5035762;28;20045;-60
2022/11/18 09:33:41;;;;;;;0.20;0.20;;;10.50;88.10;;;;;;5036053;28;20079;-61
2022/11/18 09:36:14;;;;;;;0.60;0.20;;;10.60;88.00;;;;;;5034512;28;20560;-60
2022/11/18 09:38:40;;;;;;;0.30;0.20;;;10.60;87.80;;;;;;5035325;28;20030;-60
2022/11/18 09:41:09;;;;;;;0.50;0.22;;;10.70;87.70;;;;;;5036000;28;20034;-61
2022/11/18 09:43:49;;;;;;;0.47;0.30;;;10.70;87.30;;;;;;5035993;28;20155;-61
2022/11/18 09:46:27;;;;;;;0.93;0.20;;;10.70;87.20;;;;;;5035553;28;20045;-61
2022/11/18 09:49:14;;;;;;;0.10;0.10;;;10.80;86.90;;;;;;5035432;28;20034;-60
2022/11/18 09:51:46;;;;;;;0.75;0.30;;;10.90;86.80;;;;;;5034667;28;20547;-61
2022/11/18 09:54:24;;;;;;;0.22;0.15;;;10.80;86.80;;;;;;5035799;28;20510;-62
2022/11/18 09:56:51;;;;;;;0.30;0.20;;;10.90;86.40;;;;;;5034981;28;20090;-61
2022/11/18 09:59:21;;;;;;;0.20;0.17;;;10.90;86.50;;;;;;5036163;28;20535;-60
2022/11/18 10:01:48;;;;;;;0.47;0.20;;;10.90;86.20;;;;;;5035965;28;20033;-62
2022/11/18 10:04:16;;;;;;;0.40;0.17;;;10.90;86.10;;;;;;5034502;28;20417;-62
2022/11/18 10:06:43;;;;;;;0.85;0.30;;;10.90;86.30;;;;;;5034552;28;20062;-61
2022/11/18 10:09:30;;;;;;;0.60;0.35;;;10.90;85.80;;;;;;5036063;28;20112;-61
2022/11/18 10:12:34;;;;;;;0.30;0.10;;;10.90;85.70;;;;;;5035030;28;20545;-61
2022/11/18 10:15:19;;;;;;;0.10;0.10;;;10.90;85.30;;;;;;5035205;28;20041;-61
2022/11/18 10:17:45;;;;;;;;;;;10.90;85.70;;;;;;5036731;28;20461;-61
2022/11/18 10:20:20;;;;;;;0.22;0.17;;;10.90;85.40;;;;;;5034839;28;20074;-59
2022/11/18 10:23:02;;;;;;;0.45;0.20;;;10.90;85.50;;;;;;5037924;28;20041;-61
2022/11/18 10:25:27;;;;;;;0.47;0.30;;;10.90;85.20;;;;;;5038850;28;20034;-61
2022/11/18 10:27:55;;;;;;;0.80;0.40;;;10.90;85.20;;;;;;5038829;28;20034;-61
2022/11/18 10:30:23;;;;;;;1.35;0.20;;;10.90;85.20;;;;;;5039855;28;20472;-61
2022/11/18 10:32:59;;;;;;;0.80;0.30;;;10.90;85.50;;;;;;5038728;28;20032;-62
2022/11/18 10:35:31;;;;;;;0.63;0.35;;;10.90;86.30;;;;;;5035979;28;20025;-62
2022/11/18 10:38:15;;;;;;;0.50;0.30;;;10.90;85.70;;;;;;5038389;28;20040;-61
2022/11/18 10:40:57;;;;;;;1.00;0.60;;;10.90;85.50;;;;;;5036739;28;20142;-61
2022/11/18 10:43:54;;;;;;;0.70;0.35;;;11.00;85.80;;;;;;5037756;28;20031;-61
2022/11/18 10:46:28;;;;;;;0.50;0.35;;;11.00;85.50;;;;;;5037626;28;20034;-61
2022/11/18 10:49:16;;;;;;;0.88;0.50;;;11.00;85.60;;;;;;5038735;28;20052;-62
2022/11/18 10:51:43;;;;;;;1.52;1.23;;;11.00;86.50;;;;;;5037916;28;20060;-61
2022/11/18 10:54:21;;;;;;;1.83;0.57;;;11.00;85.70;;;;;;5038976;28;20397;-62
2022/11/18 10:57:10;;;;;;;1.05;0.60;;;11.10;85.70;;;;;;5037558;28;20068;-60
2022/11/18 10:59:45;;;;;;;0.68;0.60;;;11.10;85.90;;;;;;5033517;28;20124;-61
2022/11/18 11:02:20;;;;;;;1.60;0.68;;;11.10;85.90;;;;;;5038006;28;20386;-61
2022/11/18 11:04:48;;;;;;;0.50;0.45;;;11.10;86.00;;;;;;5036527;28;20058;-62
2022/11/18 11:07:34;;;;;;;1.65;1.10;;;11.10;86.20;;;;;;5038431;28;20638;-60
2022/11/18 11:10:09;;;;;;;0.70;0.40;;;11.10;86.60;;;;;;5039064;28;20056;-60
2022/11/18 11:12:46;;;;;;;0.80;0.60;;;11.10;86.20;;;;;;5032470;28;20110;-61
2022/11/18 11:15:34;;;;;;;0.80;0.40;;;11.20;86.20;;;;;;5039208;28;20091;-62
2022/11/18 11:20:51;;;;;;;2.25;0.60;;;11.20;87.10;;;;;;5036664;28;20111;-58
2022/11/18 11:23:17;;;;;;;2.25;0.43;;;11.30;86.30;;;;;;5038975;28;20255;-61
2022/11/18 11:26:06;;;;;;;0.90;0.60;;;11.30;85.70;;;;;;5039598;28;20138;-61
2022/11/18 11:28:52;;;;;;;1.67;0.57;;;11.30;84.80;;;;;;5039158;28;20080;-62
2022/11/18 11:32:05;;;;;;;0.80;0.40;;;11.40;85.00;;;;;;5040395;28;20025;-61
2022/11/18 11:34:36;;;;;;;1.05;0.50;;;11.40;84.50;;;;;;5037830;28;20028;-61
2022/11/18 11:37:07;;;;;;;0.60;0.40;;;11.40;84.80;;;;;;5036604;28;20029;-61
2022/11/18 11:39:50;;;;;;;1.08;0.30;;;11.40;84.70;;;;;;5037845;28;20033;-62
2022/11/18 11:42:50;;;;;;;1.38;0.70;;;11.40;84.30;;;;;;5038447;28;20041;-62
2022/11/18 11:45:33;;;;;;;0.40;0.20;;;11.40;84.00;;;;;;5037917;28;20390;-62
2022/11/18 11:48:27;;;;;;;0.38;0.30;;;11.40;84.40;;;;;;5039618;28;20061;-61
2022/11/18 11:51:02;;;;;;;0.57;0.40;;;11.50;84.50;;;;;;5037692;28;20083;-61
2022/11/18 11:53:43;;;;;;;1.40;0.30;;;11.50;84.40;;;;;;5036324;28;20041;-60
2022/11/18 11:56:37;;;;;;;0.75;0.30;;;11.50;84.30;;;;;;5037353;28;20480;-60
2022/11/18 11:59:21;;;;;;;0.68;0.40;;;11.60;84.10;;;;;;5036069;28;20036;-61
2022/11/18 12:02:29;;;;;;;0.15;0.10;;;11.60;83.80;;;;;;5038152;28;20029;-60
2022/11/18 12:05:25;;;;;;;0.38;0.38;;;11.70;83.60;;;;;;5035518;28;20067;-62
2022/11/18 12:07:54;;;;;;;0.90;0.17;;;11.70;83.10;;;;;;5029191;28;20030;-61
2022/11/18 12:10:26;;;;;;;2.47;0.45;;;11.80;83.20;;;;;;5038020;28;20681;-61
2022/11/18 12:13:17;;;;;;;0.43;0.20;;;11.90;83.20;;;;;;5031645;28;20510;-60
2022/11/18 12:16:11;;;;;;;0.63;0.40;;;11.90;81.40;;;;;;5037314;28;20060;-60
2022/11/18 12:18:46;;;;;;;1.55;0.40;;;12.00;80.40;;;;;;5036140;28;20026;-62
2022/11/18 12:21:46;;;;;;;1.80;0.50;;;12.00;81.20;;;;;;5035822;28;20067;-61
2022/11/18 12:24:32;;;;;;;0.45;0.30;;;12.00;80.90;;;;;;5035968;28;20041;-61
2022/11/18 12:27:05;;;;;;;1.00;0.20;;;12.10;79.80;;;;;;5036300;28;20620;-60
2022/11/18 12:29:41;;;;;;;1.77;0.30;;;12.10;79.00;;;;;;5037051;28;20083;-62
2022/11/18 12:32:25;;;;;;;0.80;0.10;;;12.10;77.80;;;;;;5036978;28;20059;-62
2022/11/18 12:35:12;;;;;;;0.77;0.37;;;12.10;77.00;;;;;;5036760;28;20065;-61
2022/11/18 12:37:50;;;;;;;0.50;0.40;;;12.20;77.20;;;;;;5036010;28;20280;-61
2022/11/18 12:40:41;;;;;;;0.30;0.25;;;12.20;78.10;;;;;;5037010;28;20068;-61
2022/11/18 12:43:45;;;;;;;0.47;0.20;;;12.30;75.60;;;;;;5035165;28;20115;-60
2022/11/18 12:46:38;;;;;;;0.20;0.20;;;12.40;73.90;;;;;;5031080;28;20264;-59
2022/11/18 12:49:23;;;;;;;0.10;0.10;;;12.40;74.80;;;;;;5036929;28;20057;-62
2022/11/18 12:51:56;;;;;;;0.65;0.30;;;12.40;72.70;;;;;;5035223;28;20121;-60
2022/11/18 12:54:36;;;;;;;0.00;0.00;;;12.40;74.40;;;;;;5037651;28;20545;-59
2022/11/18 12:57:24;;;;;;;0.43;0.10;;;12.40;73.10;;;;;;5036576;28;20131;-62
2022/11/18 12:59:50;;;;;;;1.08;0.10;;;12.40;74.20;;;;;;5033562;28;20361;-61
2022/11/18 13:02:18;;;;;;;0.98;0.20;;;12.40;74.10;;;;;;5035174;28;20069;-61
2022/11/18 13:04:44;;;;;;;0.55;0.30;;;12.50;73.40;;;;;;5033976;28;20249;-61
2022/11/18 13:08:11;;;;;;;0.20;0.10;;;12.50;74.40;;;;;;5036854;28;20140;-61
2022/11/18 13:09:57;;;;;;;1.33;0.10;;;12.50;74.00;;;;;;5036587;28;20073;-61
2022/11/18 13:12:28;;;;;;;1.38;0.20;;;12.60;73.00;;;;;;5033260;28;20075;-61
2022/11/18 13:17:53;;;;;;;0.37;0.20;;;12.50;72.50;;;;;;5036208;28;20044;-62
2022/11/18 13:20:32;;;;;;;0.50;0.40;;;12.50;72.70;;;;;;5034586;28;20037;-59
2022/11/18 13:25:48;;;;;;;0.20;0.20;;;12.40;72.10;;;;;;5034942;28;20040;-62
2022/11/18 13:28:19;;;;;;;0.45;0.10;;;12.30;71.60;;;;;;5036919;28;20037;-61
2022/11/18 13:31:00;;;;;;;1.58;0.10;;;12.30;71.80;;;;;;5035582;28;20382;-61
2022/11/18 13:33:26;;;;;;;0.52;0.10;;;12.10;72.50;;;;;;5034583;28;20029;-61
2022/11/18 13:35:51;;;;;;;1.92;0.10;;;12.00;73.00;;;;;;5035454;28;20063;-60
2022/11/18 13:38:23;;;;;;;0.05;0.05;;;11.90;73.70;;;;;;5036408;28;20076;-61